sensor_id;sensor_type;location;lat;lon;timestamp;pressure;altitude;pressure_sealevel;temperature;humidity
5500;BME280;2772;42.700;23.304;2023-05-12T00:01:02;95363.38;;;12.25;100.00
5500;BME280;2772;42.700;23.304;2023-05-12T00:03:28;95364.75;;;12.14;100.00
5500;BME280;2772;42.700;23.304;2023-05-12T00:05:56;95361.63;;;12.20;100.00
5500;BME280;2772;42.700;23.304;2023-05-12T00:08:24;95359.59;;;12.26;100.00
5500;BME280;2772;42.700;23.304;2023-05-12T00:10:51;95362.94;;;12.31;100.00
5500;BME280;2772;42.700;23.304;2023-05-12T00:13:18;95366.72;;;12.39;100.00
5500;BME280;2772;42.700;23.304;2023-05-12T00:15:48;95358.38;;;12.49;100.00
5500;BME280;2772;42.700;23.304;2023-05-12T00:18:14;95370.31;;;12.43;100.00
5500;BME280;2772;42.700;23.304;2023-05-12T00:20:41;95363.25;;;12.38;100.00
5500;BME280;2772;42.700;23.304;2023-05-12T00:23:09;95368.28;;;12.40;100.00
5500;BME280;2772;42.700;23.304;2023-05-12T00:25:36;95371.56;;;12.37;100.00
5500;BME280;2772;42.700;23.304;2023-05-12T00:28:03;95368.38;;;12.18;100.00
5500;BME280;2772;42.700;23.304;2023-05-12T00:30:30;95363.66;;;12.15;100.00
5500;BME280;2772;42.700;23.304;2023-05-12T00:32:56;95368.16;;;11.97;100.00
5500;BME280;2772;42.700;23.304;2023-05-12T00:35:24;95360.16;;;12.06;100.00
5500;BME280;2772;42.700;23.304;2023-05-12T00:37:50;95369.75;;;12.07;100.00
5500;BME280;2772;42.700;23.304;2023-05-12T00:40:18;95368.78;;;12.03;100.00
5500;BME280;2772;42.700;23.304;2023-05-12T00:42:45;95371.91;;;11.96;100.00
5500;BME280;2772;42.700;23.304;2023-05-12T00:45:12;95375.06;;;11.98;100.00
5500;BME280;2772;42.700;23.304;2023-05-12T00:47:39;95376.13;;;11.89;100.00
5500;BME280;2772;42.700;23.304;2023-05-12T00:50:06;95372.31;;;11.81;100.00
5500;BME280;2772;42.700;23.304;2023-05-12T00:52:34;95371.03;;;11.79;100.00
5500;BME280;2772;42.700;23.304;2023-05-12T00:55:01;95366.31;;;11.76;100.00
5500;BME280;2772;42.700;23.304;2023-05-12T00:57:32;95372.94;;;11.78;100.00
5500;BME280;2772;42.700;23.304;2023-05-12T00:59:59;95372.97;;;11.87;100.00
5500;BME280;2772;42.700;23.304;2023-05-12T01:02:25;95369.66;;;11.81;100.00
5500;BME280;2772;42.700;23.304;2023-05-12T01:04:52;95376.38;;;11.79;100.00
5500;BME280;2772;42.700;23.304;2023-05-12T01:07:21;95374.00;;;11.77;100.00
5500;BME280;2772;42.700;23.304;2023-05-12T01:09:52;95379.00;;;11.70;100.00
5500;BME280;2772;42.700;23.304;2023-05-12T01:12:19;95373.06;;;11.73;100.00
5500;BME280;2772;42.700;23.304;2023-05-12T01:14:48;95376.56;;;11.60;100.00
5500;BME280;2772;42.700;23.304;2023-05-12T01:17:19;95373.00;;;11.65;100.00
5500;BME280;2772;42.700;23.304;2023-05-12T01:19:48;95367.00;;;11.59;100.00
5500;BME280;2772;42.700;23.304;2023-05-12T01:22:16;95371.50;;;11.50;100.00
5500;BME280;2772;42.700;23.304;2023-05-12T01:24:49;95375.28;;;11.58;100.00
5500;BME280;2772;42.700;23.304;2023-05-12T01:27:19;95371.53;;;11.59;100.00
5500;BME280;2772;42.700;23.304;2023-05-12T01:29:47;95371.22;;;11.60;100.00
5500;BME280;2772;42.700;23.304;2023-05-12T01:32:14;95378.75;;;11.58;100.00
5500;BME280;2772;42.700;23.304;2023-05-12T01:34:42;95370.56;;;11.55;100.00
5500;BME280;2772;42.700;23.304;2023-05-12T01:37:09;95374.47;;;11.49;100.00
5500;BME280;2772;42.700;23.304;2023-05-12T01:39:35;95374.09;;;11.19;100.00
5500;BME280;2772;42.700;23.304;2023-05-12T01:42:03;95372.03;;;11.39;100.00
5500;BME280;2772;42.700;23.304;2023-05-12T01:44:31;95370.47;;;11.38;100.00
5500;BME280;2772;42.700;23.304;2023-05-12T01:46:58;95372.34;;;11.37;100.00
5500;BME280;2772;42.700;23.304;2023-05-12T01:49:25;95375.00;;;11.37;100.00
5500;BME280;2772;42.700;23.304;2023-05-12T01:51:52;95374.88;;;11.42;100.00
5500;BME280;2772;42.700;23.304;2023-05-12T01:54:19;95377.38;;;11.16;100.00
5500;BME280;2772;42.700;23.304;2023-05-12T01:56:46;95376.59;;;11.16;100.00
5500;BME280;2772;42.700;23.304;2023-05-12T01:59:12;95365.63;;;11.17;100.00
5500;BME280;2772;42.700;23.304;2023-05-12T02:01:40;95370.06;;;11.22;100.00
5500;BME280;2772;42.700;23.304;2023-05-12T02:04:07;95364.00;;;11.30;100.00
5500;BME280;2772;42.700;23.304;2023-05-12T02:06:34;95363.69;;;11.32;100.00
5500;BME280;2772;42.700;23.304;2023-05-12T02:09:00;95365.50;;;11.22;100.00
5500;BME280;2772;42.700;23.304;2023-05-12T02:11:27;95365.56;;;11.31;100.00
5500;BME280;2772;42.700;23.304;2023-05-12T02:13:54;95370.81;;;11.22;100.00
5500;BME280;2772;42.700;23.304;2023-05-12T02:16:21;95372.00;;;11.08;100.00
5500;BME280;2772;42.700;23.304;2023-05-12T02:18:49;95368.63;;;11.02;100.00
5500;BME280;2772;42.700;23.304;2023-05-12T02:21:16;95363.28;;;11.16;100.00
5500;BME280;2772;42.700;23.304;2023-05-12T02:23:42;95360.47;;;11.21;100.00
5500;BME280;2772;42.700;23.304;2023-05-12T02:26:09;95372.91;;;11.03;100.00
5500;BME280;2772;42.700;23.304;2023-05-12T02:28:36;95360.09;;;10.92;100.00
5500;BME280;2772;42.700;23.304;2023-05-12T02:31:03;95362.97;;;10.82;100.00
5500;BME280;2772;42.700;23.304;2023-05-12T02:33:29;95364.78;;;10.86;100.00
5500;BME280;2772;42.700;23.304;2023-05-12T02:35:57;95366.50;;;10.69;100.00
5500;BME280;2772;42.700;23.304;2023-05-12T02:38:24;95360.88;;;10.70;100.00
5500;BME280;2772;42.700;23.304;2023-05-12T02:40:51;95358.81;;;10.54;100.00
5500;BME280;2772;42.700;23.304;2023-05-12T02:43:18;95362.09;;;10.37;100.00
5500;BME280;2772;42.700;23.304;2023-05-12T02:45:45;95356.97;;;10.41;100.00
5500;BME280;2772;42.700;23.304;2023-05-12T02:48:11;95360.16;;;10.29;100.00
5500;BME280;2772;42.700;23.304;2023-05-12T02:50:38;95358.69;;;10.23;100.00
5500;BME280;2772;42.700;23.304;2023-05-12T02:53:06;95351.47;;;9.97;100.00
5500;BME280;2772;42.700;23.304;2023-05-12T02:55:33;95344.38;;;9.92;100.00
5500;BME280;2772;42.700;23.304;2023-05-12T02:57:59;95349.19;;;9.90;100.00
5500;BME280;2772;42.700;23.304;2023-05-12T03:00:26;95355.09;;;9.87;100.00
5500;BME280;2772;42.700;23.304;2023-05-12T03:02:53;95359.16;;;9.85;100.00
5500;BME280;2772;42.700;23.304;2023-05-12T03:05:19;95362.09;;;9.97;100.00
5500;BME280;2772;42.700;23.304;2023-05-12T03:07:46;95359.75;;;9.82;100.00
5500;BME280;2772;42.700;23.304;2023-05-12T03:10:15;95352.84;;;9.94;100.00
5500;BME280;2772;42.700;23.304;2023-05-12T03:12:42;95355.31;;;9.91;100.00
5500;BME280;2772;42.700;23.304;2023-05-12T03:15:09;95353.44;;;9.91;100.00
5500;BME280;2772;42.700;23.304;2023-05-12T03:17:36;95351.66;;;10.00;100.00
5500;BME280;2772;42.700;23.304;2023-05-12T03:20:03;95358.75;;;10.05;100.00
5500;BME280;2772;42.700;23.304;2023-05-12T03:22:30;95361.22;;;10.01;100.00
5500;BME280;2772;42.700;23.304;2023-05-12T03:24:57;95356.59;;;9.80;100.00
5500;BME280;2772;42.700;23.304;2023-05-12T03:27:25;95357.47;;;9.89;100.00
5500;BME280;2772;42.700;23.304;2023-05-12T03:29:52;95361.50;;;10.00;100.00
5500;BME280;2772;42.700;23.304;2023-05-12T03:32:18;95364.31;;;10.08;100.00
5500;BME280;2772;42.700;23.304;2023-05-12T03:34:45;95357.66;;;10.06;100.00
5500;BME280;2772;42.700;23.304;2023-05-12T03:37:12;95370.59;;;9.99;100.00
5500;BME280;2772;42.700;23.304;2023-05-12T03:39:38;95370.88;;;9.97;100.00
5500;BME280;2772;42.700;23.304;2023-05-12T03:42:05;95373.13;;;9.90;100.00
5500;BME280;2772;42.700;23.304;2023-05-12T03:44:33;95361.72;;;9.90;100.00
5500;BME280;2772;42.700;23.304;2023-05-12T03:47:00;95371.56;;;9.89;100.00
5500;BME280;2772;42.700;23.304;2023-05-12T03:49:27;95363.50;;;9.94;100.00
5500;BME280;2772;42.700;23.304;2023-05-12T03:51:53;95366.03;;;9.99;100.00
5500;BME280;2772;42.700;23.304;2023-05-12T03:54:20;95373.34;;;10.07;100.00
5500;BME280;2772;42.700;23.304;2023-05-12T03:56:46;95378.00;;;10.15;100.00
5500;BME280;2772;42.700;23.304;2023-05-12T03:59:13;95372.16;;;10.00;100.00
5500;BME280;2772;42.700;23.304;2023-05-12T04:01:41;95378.28;;;10.14;100.00
5500;BME280;2772;42.700;23.304;2023-05-12T04:04:08;95384.41;;;10.14;100.00
5500;BME280;2772;42.700;23.304;2023-05-12T04:06:35;95375.53;;;10.05;100.00
5500;BME280;2772;42.700;23.304;2023-05-12T04:09:03;95387.66;;;10.11;100.00
5500;BME280;2772;42.700;23.304;2023-05-12T04:11:29;95386.88;;;10.11;100.00
5500;BME280;2772;42.700;23.304;2023-05-12T04:13:56;95390.97;;;10.03;100.00
5500;BME280;2772;42.700;23.304;2023-05-12T04:16:23;95399.97;;;10.07;100.00
5500;BME280;2772;42.700;23.304;2023-05-12T04:18:51;95391.47;;;10.05;100.00
5500;BME280;2772;42.700;23.304;2023-05-12T04:21:17;95392.25;;;10.06;100.00
5500;BME280;2772;42.700;23.304;2023-05-12T04:23:44;95399.00;;;10.17;100.00
5500;BME280;2772;42.700;23.304;2023-05-12T04:26:11;95391.50;;;10.19;100.00
5500;BME280;2772;42.700;23.304;2023-05-12T04:28:37;95390.53;;;10.15;100.00
5500;BME280;2772;42.700;23.304;2023-05-12T04:31:04;95385.38;;;10.18;100.00
5500;BME280;2772;42.700;23.304;2023-05-12T04:33:31;95380.75;;;10.24;100.00
5500;BME280;2772;42.700;23.304;2023-05-12T04:35:59;95392.47;;;10.23;100.00
5500;BME280;2772;42.700;23.304;2023-05-12T04:38:26;95389.53;;;10.24;100.00
5500;BME280;2772;42.700;23.304;2023-05-12T04:40:56;95390.31;;;10.25;100.00
5500;BME280;2772;42.700;23.304;2023-05-12T04:43:24;95392.78;;;10.35;100.00
5500;BME280;2772;42.700;23.304;2023-05-12T04:45:51;95393.78;;;10.25;100.00
5500;BME280;2772;42.700;23.304;2023-05-12T04:48:19;95393.47;;;10.40;100.00
5500;BME280;2772;42.700;23.304;2023-05-12T04:50:46;95394.66;;;10.34;100.00
5500;BME280;2772;42.700;23.304;2023-05-12T04:53:15;95394.66;;;10.34;100.00
5500;BME280;2772;42.700;23.304;2023-05-12T04:55:42;95399.00;;;10.30;100.00
5500;BME280;2772;42.700;23.304;2023-05-12T04:58:10;95396.44;;;10.25;100.00
5500;BME280;2772;42.700;23.304;2023-05-12T05:00:37;95399.59;;;10.27;100.00
5500;BME280;2772;42.700;23.304;2023-05-12T05:03:04;95402.13;;;10.32;100.00
5500;BME280;2772;42.700;23.304;2023-05-12T05:05:31;95395.03;;;10.28;100.00
5500;BME280;2772;42.700;23.304;2023-05-12T05:07:58;95397.31;;;10.21;100.00
5500;BME280;2772;42.700;23.304;2023-05-12T05:10:26;95395.94;;;10.23;100.00
5500;BME280;2772;42.700;23.304;2023-05-12T05:12:52;95398.31;;;10.25;100.00
5500;BME280;2772;42.700;23.304;2023-05-12T05:15:19;95399.19;;;10.34;100.00
5500;BME280;2772;42.700;23.304;2023-05-12T05:17:46;95402.53;;;10.26;100.00
5500;BME280;2772;42.700;23.304;2023-05-12T05:20:14;95399.19;;;10.20;100.00
5500;BME280;2772;42.700;23.304;2023-05-12T05:22:40;95406.00;;;10.26;100.00
5500;BME280;2772;42.700;23.304;2023-05-12T05:25:08;95398.72;;;10.32;100.00
5500;BME280;2772;42.700;23.304;2023-05-12T05:27:36;95397.22;;;10.39;100.00
5500;BME280;2772;42.700;23.304;2023-05-12T05:30:05;95403.91;;;10.50;100.00
5500;BME280;2772;42.700;23.304;2023-05-12T05:32:33;95416.63;;;10.53;100.00
5500;BME280;2772;42.700;23.304;2023-05-12T05:35:00;95413.97;;;10.40;100.00
5500;BME280;2772;42.700;23.304;2023-05-12T05:37:27;95414.25;;;10.52;100.00
5500;BME280;2772;42.700;23.304;2023-05-12T05:39:54;95418.69;;;10.56;100.00
5500;BME280;2772;42.700;23.304;2023-05-12T05:42:20;95416.03;;;10.56;100.00
5500;BME280;2772;42.700;23.304;2023-05-12T05:44:48;95411.91;;;10.50;100.00
5500;BME280;2772;42.700;23.304;2023-05-12T05:47:15;95420.75;;;10.59;100.00
5500;BME280;2772;42.700;23.304;2023-05-12T05:49:42;95408.84;;;10.57;100.00
5500;BME280;2772;42.700;23.304;2023-05-12T05:52:09;95419.88;;;10.64;100.00
5500;BME280;2772;42.700;23.304;2023-05-12T05:54:35;95423.13;;;10.61;100.00
5500;BME280;2772;42.700;23.304;2023-05-12T05:57:02;95421.25;;;10.61;100.00
5500;BME280;2772;42.700;23.304;2023-05-12T05:59:29;95421.69;;;10.90;100.00
5500;BME280;2772;42.700;23.304;2023-05-12T06:01:57;95412.50;;;11.18;100.00
5500;BME280;2772;42.700;23.304;2023-05-12T06:04:24;95410.16;;;11.17;100.00
5500;BME280;2772;42.700;23.304;2023-05-12T06:06:51;95417.63;;;11.29;100.00
5500;BME280;2772;42.700;23.304;2023-05-12T06:09:18;95422.78;;;11.47;100.00
5500;BME280;2772;42.700;23.304;2023-05-12T06:11:44;95424.16;;;11.45;100.00
5500;BME280;2772;42.700;23.304;2023-05-12T06:14:11;95433.66;;;11.37;100.00
5500;BME280;2772;42.700;23.304;2023-05-12T06:16:38;95437.84;;;11.30;100.00
5500;BME280;2772;42.700;23.304;2023-05-12T06:19:06;95437.72;;;11.12;100.00
5500;BME280;2772;42.700;23.304;2023-05-12T06:21:33;95439.28;;;11.13;100.00
5500;BME280;2772;42.700;23.304;2023-05-12T06:24:00;95447.38;;;11.08;100.00
5500;BME280;2772;42.700;23.304;2023-05-12T06:26:26;95439.13;;;10.96;100.00
5500;BME280;2772;42.700;23.304;2023-05-12T06:28:53;95451.75;;;11.04;100.00
5500;BME280;2772;42.700;23.304;2023-05-12T06:31:20;95450.94;;;11.17;100.00
5500;BME280;2772;42.700;23.304;2023-05-12T06:33:47;95452.50;;;11.18;100.00
5500;BME280;2772;42.700;23.304;2023-05-12T06:36:15;95451.09;;;11.21;100.00
5500;BME280;2772;42.700;23.304;2023-05-12T06:38:41;95456.03;;;11.27;100.00
5500;BME280;2772;42.700;23.304;2023-05-12T06:41:08;95457.19;;;11.35;100.00
5500;BME280;2772;42.700;23.304;2023-05-12T06:43:35;95465.34;;;11.16;100.00
5500;BME280;2772;42.700;23.304;2023-05-12T06:46:01;95454.94;;;11.29;100.00
5500;BME280;2772;42.700;23.304;2023-05-12T06:48:28;95466.34;;;11.20;100.00
5500;BME280;2772;42.700;23.304;2023-05-12T06:50:55;95454.22;;;11.14;100.00
5500;BME280;2772;42.700;23.304;2023-05-12T06:53:36;95472.31;;;11.26;100.00
5500;BME280;2772;42.700;23.304;2023-05-12T06:56:03;95467.84;;;11.35;100.00
5500;BME280;2772;42.700;23.304;2023-05-12T06:58:30;95467.69;;;11.32;100.00
5500;BME280;2772;42.700;23.304;2023-05-12T07:00:57;95470.03;;;11.33;100.00
5500;BME280;2772;42.700;23.304;2023-05-12T07:03:24;95459.19;;;11.30;100.00
5500;BME280;2772;42.700;23.304;2023-05-12T07:06:00;95473.19;;;11.35;100.00
5500;BME280;2772;42.700;23.304;2023-05-12T07:08:28;95463.16;;;11.18;100.00
5500;BME280;2772;42.700;23.304;2023-05-12T07:11:11;95466.47;;;11.38;100.00
5500;BME280;2772;42.700;23.304;2023-05-12T07:13:57;95456.47;;;11.07;100.00
5500;BME280;2772;42.700;23.304;2023-05-12T07:16:24;95467.09;;;11.21;100.00
5500;BME280;2772;42.700;23.304;2023-05-12T07:18:51;95469.63;;;11.40;100.00
5500;BME280;2772;42.700;23.304;2023-05-12T07:21:17;95466.41;;;11.51;100.00
5500;BME280;2772;42.700;23.304;2023-05-12T07:23:45;95464.22;;;11.31;100.00
5500;BME280;2772;42.700;23.304;2023-05-12T07:26:12;95465.59;;;11.51;100.00
5500;BME280;2772;42.700;23.304;2023-05-12T07:28:40;95468.28;;;11.51;100.00
5500;BME280;2772;42.700;23.304;2023-05-12T07:31:07;95465.56;;;11.42;100.00
5500;BME280;2772;42.700;23.304;2023-05-12T07:33:34;95465.88;;;11.41;100.00
5500;BME280;2772;42.700;23.304;2023-05-12T07:36:02;95461.25;;;11.55;100.00
5500;BME280;2772;42.700;23.304;2023-05-12T07:38:29;95467.81;;;11.49;100.00
5500;BME280;2772;42.700;23.304;2023-05-12T07:40:58;95464.00;;;11.63;100.00
5500;BME280;2772;42.700;23.304;2023-05-12T07:43:25;95462.66;;;11.74;100.00
5500;BME280;2772;42.700;23.304;2023-05-12T07:45:51;95476.00;;;11.96;100.00
5500;BME280;2772;42.700;23.304;2023-05-12T07:48:19;95465.19;;;12.01;100.00
5500;BME280;2772;42.700;23.304;2023-05-12T07:50:46;95460.50;;;12.07;100.00
5500;BME280;2772;42.700;23.304;2023-05-12T07:53:13;95464.91;;;12.03;100.00
5500;BME280;2772;42.700;23.304;2023-05-12T07:55:40;95470.19;;;12.25;100.00
5500;BME280;2772;42.700;23.304;2023-05-12T07:58:09;95458.63;;;12.38;100.00
5500;BME280;2772;42.700;23.304;2023-05-12T08:00:36;95465.44;;;12.52;100.00
5500;BME280;2772;42.700;23.304;2023-05-12T08:03:03;95459.22;;;12.82;100.00
5500;BME280;2772;42.700;23.304;2023-05-12T08:05:31;95464.63;;;13.00;100.00
5500;BME280;2772;42.700;23.304;2023-05-12T08:07:57;95467.50;;;13.03;100.00
5500;BME280;2772;42.700;23.304;2023-05-12T08:10:24;95474.22;;;13.01;100.00
5500;BME280;2772;42.700;23.304;2023-05-12T08:12:54;95463.22;;;13.02;100.00
5500;BME280;2772;42.700;23.304;2023-05-12T08:15:23;95470.66;;;13.31;100.00
5500;BME280;2772;42.700;23.304;2023-05-12T08:17:50;95474.63;;;13.33;100.00
5500;BME280;2772;42.700;23.304;2023-05-12T08:20:17;95470.50;;;13.27;100.00
5500;BME280;2772;42.700;23.304;2023-05-12T08:22:44;95470.50;;;13.44;100.00
5500;BME280;2772;42.700;23.304;2023-05-12T08:25:12;95472.09;;;13.62;100.00
5500;BME280;2772;42.700;23.304;2023-05-12T08:27:39;95490.19;;;13.57;100.00
5500;BME280;2772;42.700;23.304;2023-05-12T08:30:06;95484.53;;;13.67;100.00
5500;BME280;2772;42.700;23.304;2023-05-12T08:32:35;95487.50;;;13.74;100.00
5500;BME280;2772;42.700;23.304;2023-05-12T08:35:03;95487.66;;;13.43;100.00
5500;BME280;2772;42.700;23.304;2023-05-12T08:37:30;95493.97;;;13.56;100.00
5500;BME280;2772;42.700;23.304;2023-05-12T08:39:57;95481.34;;;13.82;100.00
5500;BME280;2772;42.700;23.304;2023-05-12T08:42:30;95479.94;;;13.76;100.00
5500;BME280;2772;42.700;23.304;2023-05-12T08:45:01;95485.28;;;13.84;100.00
5500;BME280;2772;42.700;23.304;2023-05-12T08:47:30;95483.88;;;13.87;100.00
5500;BME280;2772;42.700;23.304;2023-05-12T08:50:01;95480.88;;;13.71;100.00
5500;BME280;2772;42.700;23.304;2023-05-12T08:52:30;95487.19;;;13.84;100.00
5500;BME280;2772;42.700;23.304;2023-05-12T08:54:57;95491.56;;;14.05;100.00
5500;BME280;2772;42.700;23.304;2023-05-12T08:57:25;95489.94;;;14.13;100.00
5500;BME280;2772;42.700;23.304;2023-05-12T08:59:53;95480.81;;;14.31;100.00
5500;BME280;2772;42.700;23.304;2023-05-12T09:02:21;95482.22;;;14.28;100.00
5500;BME280;2772;42.700;23.304;2023-05-12T09:04:48;95488.22;;;14.34;100.00
5500;BME280;2772;42.700;23.304;2023-05-12T09:07:17;95476.50;;;14.47;100.00
5500;BME280;2772;42.700;23.304;2023-05-12T09:09:46;95480.59;;;14.45;100.00
5500;BME280;2772;42.700;23.304;2023-05-12T09:12:15;95482.19;;;14.46;100.00
5500;BME280;2772;42.700;23.304;2023-05-12T09:14:44;95475.72;;;14.47;100.00
5500;BME280;2772;42.700;23.304;2023-05-12T09:17:11;95465.16;;;14.50;100.00
5500;BME280;2772;42.700;23.304;2023-05-12T09:19:38;95461.50;;;14.55;100.00
5500;BME280;2772;42.700;23.304;2023-05-12T09:22:05;95470.56;;;14.71;100.00
5500;BME280;2772;42.700;23.304;2023-05-12T09:24:36;95468.41;;;14.64;100.00
5500;BME280;2772;42.700;23.304;2023-05-12T09:27:03;95465.31;;;14.83;100.00
5500;BME280;2772;42.700;23.304;2023-05-12T09:29:31;95464.03;;;14.80;100.00
5500;BME280;2772;42.700;23.304;2023-05-12T09:32:00;95463.59;;;14.78;100.00
5500;BME280;2772;42.700;23.304;2023-05-12T09:34:28;95455.03;;;14.85;100.00
5500;BME280;2772;42.700;23.304;2023-05-12T09:36:56;95460.34;;;14.93;100.00
5500;BME280;2772;42.700;23.304;2023-05-12T09:39:23;95454.00;;;14.98;100.00
5500;BME280;2772;42.700;23.304;2023-05-12T09:41:52;95466.00;;;15.00;100.00
5500;BME280;2772;42.700;23.304;2023-05-12T09:44:18;95459.13;;;15.11;100.00
5500;BME280;2772;42.700;23.304;2023-05-12T09:46:45;95467.72;;;15.05;100.00
5500;BME280;2772;42.700;23.304;2023-05-12T09:49:17;95462.53;;;15.00;100.00
5500;BME280;2772;42.700;23.304;2023-05-12T09:51:44;95472.97;;;14.93;100.00
5500;BME280;2772;42.700;23.304;2023-05-12T09:54:11;95466.69;;;14.89;100.00
5500;BME280;2772;42.700;23.304;2023-05-12T09:56:39;95459.13;;;14.91;100.00
5500;BME280;2772;42.700;23.304;2023-05-12T09:59:10;95458.88;;;15.04;100.00
5500;BME280;2772;42.700;23.304;2023-05-12T10:01:38;95468.50;;;15.26;100.00
5500;BME280;2772;42.700;23.304;2023-05-12T10:04:06;95453.28;;;15.38;100.00
5500;BME280;2772;42.700;23.304;2023-05-12T10:06:39;95465.72;;;15.43;100.00
5500;BME280;2772;42.700;23.304;2023-05-12T10:09:11;95453.75;;;15.61;100.00
5500;BME280;2772;42.700;23.304;2023-05-12T10:11:40;95463.03;;;15.63;100.00
5500;BME280;2772;42.700;23.304;2023-05-12T10:14:09;95452.47;;;15.79;100.00
5500;BME280;2772;42.700;23.304;2023-05-12T10:16:38;95452.50;;;15.91;100.00
5500;BME280;2772;42.700;23.304;2023-05-12T10:19:05;95452.78;;;15.98;100.00
5500;BME280;2772;42.700;23.304;2023-05-12T10:21:33;95449.53;;;15.72;99.01
5500;BME280;2772;42.700;23.304;2023-05-12T10:24:02;95451.59;;;15.87;100.00
5500;BME280;2772;42.700;23.304;2023-05-12T10:26:30;95456.13;;;15.95;99.53
5500;BME280;2772;42.700;23.304;2023-05-12T10:28:58;95457.50;;;16.13;99.86
5500;BME280;2772;42.700;23.304;2023-05-12T10:31:26;95445.91;;;16.33;96.84
5500;BME280;2772;42.700;23.304;2023-05-12T10:33:56;95437.91;;;16.57;99.08
5500;BME280;2772;42.700;23.304;2023-05-12T10:36:24;95438.00;;;16.49;92.21
5500;BME280;2772;42.700;23.304;2023-05-12T10:38:50;95428.44;;;16.39;91.55
5500;BME280;2772;42.700;23.304;2023-05-12T10:41:28;95440.00;;;16.52;89.82
5500;BME280;2772;42.700;23.304;2023-05-12T10:43:55;95432.94;;;16.47;89.45
5500;BME280;2772;42.700;23.304;2023-05-12T10:46:22;95430.25;;;16.47;93.08
5500;BME280;2772;42.700;23.304;2023-05-12T10:48:54;95433.94;;;16.43;89.13
5500;BME280;2772;42.700;23.304;2023-05-12T10:51:22;95430.84;;;16.65;89.55
5500;BME280;2772;42.700;23.304;2023-05-12T10:53:52;95424.66;;;16.88;88.35
5500;BME280;2772;42.700;23.304;2023-05-12T10:56:24;95429.59;;;16.98;89.46
5500;BME280;2772;42.700;23.304;2023-05-12T10:59:21;95421.50;;;17.10;87.46
5500;BME280;2772;42.700;23.304;2023-05-12T11:01:58;95423.28;;;17.18;87.97
5500;BME280;2772;42.700;23.304;2023-05-12T11:04:37;95426.88;;;17.10;86.93
5500;BME280;2772;42.700;23.304;2023-05-12T11:07:06;95423.63;;;17.17;84.81
5500;BME280;2772;42.700;23.304;2023-05-12T11:09:34;95419.34;;;17.28;85.45
5500;BME280;2772;42.700;23.304;2023-05-12T11:12:01;95425.50;;;17.28;85.66
5500;BME280;2772;42.700;23.304;2023-05-12T11:14:29;95430.19;;;17.43;84.34
5500;BME280;2772;42.700;23.304;2023-05-12T11:16:56;95430.88;;;17.28;84.87
5500;BME280;2772;42.700;23.304;2023-05-12T11:19:23;95430.22;;;17.19;83.48
5500;BME280;2772;42.700;23.304;2023-05-12T11:21:51;95427.34;;;17.00;85.76
5500;BME280;2772;42.700;23.304;2023-05-12T11:24:19;95428.91;;;17.13;86.44
5500;BME280;2772;42.700;23.304;2023-05-12T11:26:46;95434.63;;;17.12;86.74
5500;BME280;2772;42.700;23.304;2023-05-12T11:29:16;95438.88;;;17.25;89.07
5500;BME280;2772;42.700;23.304;2023-05-12T11:31:46;95424.63;;;17.24;82.60
5500;BME280;2772;42.700;23.304;2023-05-12T11:34:12;95440.66;;;17.45;83.11
5500;BME280;2772;42.700;23.304;2023-05-12T11:36:41;95436.13;;;17.49;84.71
5500;BME280;2772;42.700;23.304;2023-05-12T11:39:15;95438.72;;;17.33;81.82
5500;BME280;2772;42.700;23.304;2023-05-12T11:41:42;95437.41;;;17.27;82.14
5500;BME280;2772;42.700;23.304;2023-05-12T11:44:12;95438.53;;;17.14;82.46
5500;BME280;2772;42.700;23.304;2023-05-12T11:46:39;95436.03;;;17.33;83.38
5500;BME280;2772;42.700;23.304;2023-05-12T11:49:09;95435.47;;;17.40;77.26
5500;BME280;2772;42.700;23.304;2023-05-12T11:51:40;95430.69;;;17.21;74.62
5500;BME280;2772;42.700;23.304;2023-05-12T11:54:07;95436.94;;;17.37;75.78
5500;BME280;2772;42.700;23.304;2023-05-12T11:56:35;95431.56;;;17.37;76.12
5500;BME280;2772;42.700;23.304;2023-05-12T11:59:02;95432.75;;;17.52;74.02
5500;BME280;2772;42.700;23.304;2023-05-12T12:01:29;95429.78;;;17.29;73.02
5500;BME280;2772;42.700;23.304;2023-05-12T12:03:58;95427.44;;;17.16;76.20
5500;BME280;2772;42.700;23.304;2023-05-12T12:06:24;95429.25;;;17.12;78.05
5500;BME280;2772;42.700;23.304;2023-05-12T12:08:53;95424.06;;;17.19;80.24
5500;BME280;2772;42.700;23.304;2023-05-12T12:11:20;95426.06;;;17.34;78.26
5500;BME280;2772;42.700;23.304;2023-05-12T12:13:50;95428.06;;;17.37;79.91
5500;BME280;2772;42.700;23.304;2023-05-12T12:16:24;95436.38;;;17.44;78.82
5500;BME280;2772;42.700;23.304;2023-05-12T12:18:51;95433.19;;;17.54;77.89
5500;BME280;2772;42.700;23.304;2023-05-12T12:21:23;95427.47;;;17.56;79.06
5500;BME280;2772;42.700;23.304;2023-05-12T12:23:50;95435.25;;;17.33;80.02
5500;BME280;2772;42.700;23.304;2023-05-12T12:26:17;95437.59;;;17.34;80.78
5500;BME280;2772;42.700;23.304;2023-05-12T12:28:45;95432.81;;;17.28;79.75
5500;BME280;2772;42.700;23.304;2023-05-12T12:31:14;95432.94;;;17.07;79.42
5500;BME280;2772;42.700;23.304;2023-05-12T12:33:40;95434.72;;;17.15;80.07
5500;BME280;2772;42.700;23.304;2023-05-12T12:36:08;95425.09;;;17.02;79.90
5500;BME280;2772;42.700;23.304;2023-05-12T12:38:34;95435.28;;;17.21;78.33
5500;BME280;2772;42.700;23.304;2023-05-12T12:41:02;95436.31;;;17.04;80.15
5500;BME280;2772;42.700;23.304;2023-05-12T12:43:29;95435.41;;;17.00;80.81
5500;BME280;2772;42.700;23.304;2023-05-12T12:45:56;95434.50;;;17.08;79.40
5500;BME280;2772;42.700;23.304;2023-05-12T12:48:24;95432.50;;;17.05;79.30
5500;BME280;2772;42.700;23.304;2023-05-12T12:50:53;95428.00;;;16.97;79.51
5500;BME280;2772;42.700;23.304;2023-05-12T12:53:19;95427.44;;;17.04;82.31
5500;BME280;2772;42.700;23.304;2023-05-12T12:55:46;95430.13;;;17.16;81.30
5500;BME280;2772;42.700;23.304;2023-05-12T12:58:13;95430.25;;;17.07;79.77
5500;BME280;2772;42.700;23.304;2023-05-12T13:00:40;95421.63;;;16.90;78.49
5500;BME280;2772;42.700;23.304;2023-05-12T13:03:07;95422.66;;;16.73;80.29
5500;BME280;2772;42.700;23.304;2023-05-12T13:05:35;95414.47;;;16.94;80.39